Time;durP1;ratioP1;P1;durP2;ratioP2;P2;SDS_P1;SDS_P2;PMS_P1;PMS_P2;Temp;Humidity;BMP_temperature;BMP_pressure;BME280_temperature;BME280_humidity;BME280_pressure;Samples;Min_cycle;Max_cycle;Signal;HPM_P1;HPM_P2
2022/03/11 00:02:05;;;;;;;11.30;6.93;;;;;;;2.19;45.08;102665.72;5007572;28;20233;-51
2022/03/11 00:04:32;;;;;;;11.60;7.63;;;;;;;2.51;46.04;102665.19;5006210;28;20265;-52
2022/03/11 00:06:59;;;;;;;10.17;7.20;;;;;;;2.35;44.62;102667.59;5008724;28;20321;-53
2022/03/11 00:09:26;;;;;;;7.83;7.03;;;;;;;2.06;45.94;102664.03;5013886;28;20243;-52
2022/03/11 00:11:52;;;;;;;10.70;7.90;;;;;;;2.06;45.80;102660.56;5010666;28;20290;-51
2022/03/11 00:14:18;;;;;;;12.03;7.63;;;;;;;2.07;47.01;102665.84;5008267;28;20835;-52
2022/03/11 00:16:44;;;;;;;11.80;8.20;;;;;;;2.47;47.84;102673.56;5006802;28;20276;-51
2022/03/11 00:19:11;;;;;;;9.67;6.73;;;;;;;2.19;45.07;102678.69;5007591;28;20233;-51
2022/03/11 00:21:37;;;;;;;11.97;7.47;;;;;;;1.92;46.19;102670.91;5004031;28;20245;-54
2022/03/11 00:24:05;;;;;;;10.77;7.67;;;;;;;2.39;47.10;102670.50;5008433;28;20259;-54
2022/03/11 00:26:32;;;;;;;10.47;8.17;;;;;;;2.64;45.12;102664.25;5006624;28;20314;-52
2022/03/11 00:28:58;;;;;;;11.23;7.90;;;;;;;2.20;44.01;102661.44;5007829;28;20238;-53
2022/03/11 00:31:25;;;;;;;13.10;6.80;;;;;;;2.56;48.05;102662.88;5006518;28;20294;-52
2022/03/11 00:33:51;;;;;;;9.93;7.77;;;;;;;2.46;46.49;102671.78;5004604;28;20236;-53
2022/03/11 00:36:17;;;;;;;10.87;8.27;;;;;;;2.41;45.93;102667.09;5004864;28;20256;-53
2022/03/11 00:38:44;;;;;;;10.47;8.20;;;;;;;2.34;46.11;102671.00;5008241;28;20264;-53
2022/03/11 00:41:11;;;;;;;9.50;7.27;;;;;;;2.49;44.29;102665.88;5008176;28;20271;-52
2022/03/11 00:43:38;;;;;;;10.97;8.17;;;;;;;2.27;45.84;102659.34;5006840;28;20655;-53
2022/03/11 00:46:04;;;;;;;13.67;7.90;;;;;;;2.23;44.90;102667.72;5007887;28;20295;-52
2022/03/11 00:48:31;;;;;;;12.77;8.20;;;;;;;2.01;48.00;102667.16;5006636;28;20244;-52
2022/03/11 00:50:58;;;;;;;12.67;7.47;;;;;;;2.15;45.46;102664.63;5006852;28;20272;-51
2022/03/11 00:53:27;;;;;;;11.13;7.83;;;;;;;2.06;44.92;102660.56;4998784;28;20235;-52
2022/03/11 00:55:54;;;;;;;9.47;7.60;;;;;;;2.23;44.39;102659.94;5004903;28;20275;-53
2022/03/11 00:58:21;;;;;;;10.40;7.67;;;;;;;1.91;45.34;102660.47;5005290;28;20260;-53
2022/03/11 01:00:48;;;;;;;12.93;7.63;;;;;;;1.80;45.89;102659.78;5007998;28;20877;-52
2022/03/11 01:03:14;;;;;;;12.27;8.20;;;;;;;1.56;45.78;102652.97;5007039;28;20240;-53
2022/03/11 01:05:41;;;;;;;10.80;7.13;;;;;;;1.74;47.14;102654.19;5007624;28;20296;-52
2022/03/11 01:08:07;;;;;;;9.87;8.23;;;;;;;1.88;48.31;102655.09;5004832;28;20230;-52
2022/03/11 01:10:33;;;;;;;12.77;8.47;;;;;;;1.74;45.88;102655.88;5003117;28;20265;-51
2022/03/11 01:13:00;;;;;;;9.60;7.13;;;;;;;2.11;47.04;102654.00;5007077;28;20264;-52
2022/03/11 01:15:27;;;;;;;11.83;7.07;;;;;;;2.32;46.76;102654.47;5007787;28;20274;-52
2022/03/11 01:17:54;;;;;;;8.90;7.20;;;;;;;2.04;46.04;102649.22;5001665;28;20251;-52
2022/03/11 01:20:20;;;;;;;15.33;7.90;;;;;;;2.02;45.61;102650.81;5006502;28;20245;-53
2022/03/11 01:22:46;;;;;;;9.37;7.03;;;;;;;2.10;44.39;102645.28;5006667;28;20239;-53
2022/03/11 01:25:12;;;;;;;13.07;7.67;;;;;;;2.08;46.63;102651.19;4999400;28;20275;-53
2022/03/11 01:27:39;;;;;;;10.50;7.43;;;;;;;2.01;46.08;102652.50;5007718;28;20260;-52
2022/03/11 01:30:09;;;;;;;9.37;7.23;;;;;;;2.28;47.20;102640.41;5005980;28;20241;-52
2022/03/11 01:32:37;;;;;;;10.03;7.40;;;;;;;2.09;45.87;102647.81;5007838;28;20310;-53
2022/03/11 01:35:04;;;;;;;10.43;7.37;;;;;;;1.94;46.02;102641.66;5006438;28;20267;-52
2022/03/11 01:37:30;;;;;;;11.97;7.73;;;;;;;2.11;47.21;102646.22;5007976;28;20839;-53
2022/03/11 01:39:56;;;;;;;10.83;8.33;;;;;;;2.20;45.46;102654.56;5007991;28;20361;-53
2022/03/11 01:42:23;;;;;;;14.03;7.73;;;;;;;2.21;46.57;102643.44;5007717;28;20275;-53
2022/03/11 01:44:52;;;;;;;12.63;8.27;;;;;;;1.96;44.08;102640.94;5003897;28;20252;-53
2022/03/11 01:47:18;;;;;;;10.60;6.93;;;;;;;1.84;46.27;102637.56;5006296;28;20307;-52
2022/03/11 01:49:46;;;;;;;11.30;7.67;;;;;;;1.60;45.21;102645.50;5006835;28;20236;-52
2022/03/11 01:52:13;;;;;;;11.40;7.97;;;;;;;1.56;45.13;102635.75;5006653;28;20236;-52
2022/03/11 01:54:40;;;;;;;13.25;8.93;;;;;;;1.52;45.32;102640.63;5005747;28;20845;-52
2022/03/11 01:57:06;;;;;;;12.68;9.65;;;;;;;1.84;47.21;102634.97;5007488;28;20428;-53
2022/03/11 01:59:33;;;;;;;12.50;8.63;;;;;;;1.88;47.48;102631.78;5007997;28;20260;-52
2022/03/11 02:01:59;;;;;;;14.43;8.63;;;;;;;1.83;46.61;102633.19;5008740;28;20788;-53
2022/03/11 02:04:25;;;;;;;15.37;8.80;;;;;;;1.72;46.43;102635.06;5007540;28;20572;-53
2022/03/11 02:06:53;;;;;;;13.00;7.77;;;;;;;1.57;45.75;102634.03;5005813;28;20240;-53
2022/03/11 02:09:20;;;;;;;10.90;7.67;;;;;;;1.30;45.51;102634.03;5006148;28;20248;-53
2022/03/11 02:11:46;;;;;;;11.43;7.20;;;;;;;1.35;46.04;102627.44;5002321;28;20263;-52
2022/03/11 02:14:13;;;;;;;10.33;7.40;;;;;;;1.43;45.98;102628.84;5007011;28;20260;-53
2022/03/11 02:16:40;;;;;;;11.10;8.03;;;;;;;1.56;46.28;102632.25;5007743;28;20268;-53
2022/03/11 02:19:07;;;;;;;12.17;9.10;;;;;;;1.91;47.97;102631.97;5006445;28;20295;-54
2022/03/11 02:21:39;;;;;;;9.73;7.43;;;;;;;1.94;45.78;102620.94;5007094;28;20269;-53
2022/03/11 02:24:09;;;;;;;12.87;9.10;;;;;;;1.19;46.71;102629.78;4998804;28;20713;-53
2022/03/11 02:26:36;;;;;;;12.53;8.97;;;;;;;1.47;46.41;102622.19;5005519;28;20243;-52
2022/03/11 02:29:03;;;;;;;13.70;8.63;;;;;;;1.57;47.30;102619.41;5009357;28;20232;-53
2022/03/11 02:31:31;;;;;;;11.30;7.90;;;;;;;1.51;47.16;102618.09;5010255;28;20256;-52
2022/03/11 02:34:00;;;;;;;14.67;9.00;;;;;;;1.35;46.22;102622.28;5013196;28;20240;-53
2022/03/11 02:36:27;;;;;;;9.83;7.93;;;;;;;1.78;48.14;102619.03;5008288;28;20236;-52
2022/03/11 02:38:53;;;;;;;12.20;7.77;;;;;;;1.61;47.15;102620.50;5006202;28;20288;-53
2022/03/11 02:41:21;;;;;;;11.37;7.90;;;;;;;1.61;46.82;102620.50;5003780;28;20274;-53
2022/03/11 02:43:47;;;;;;;12.70;9.43;;;;;;;1.33;46.38;102616.09;5004620;28;20233;-52
2022/03/11 02:46:14;;;;;;;13.73;9.23;;;;;;;1.57;47.61;102618.53;5000743;28;20271;-52
2022/03/11 02:48:40;;;;;;;11.20;7.50;;;;;;;1.57;48.80;102623.69;5000654;28;20825;-53
2022/03/11 02:51:07;;;;;;;13.47;9.20;;;;;;;1.82;46.21;102619.31;5005356;28;20263;-52
2022/03/11 02:53:37;;;;;;;13.63;8.10;;;;;;;1.07;46.33;102613.47;5004805;28;20248;-53
2022/03/11 02:56:04;;;;;;;10.77;8.53;;;;;;;1.22;45.82;102619.66;5005273;28;20232;-51
2022/03/11 02:58:32;;;;;;;13.00;8.53;;;;;;;0.99;46.72;102614.63;5005418;28;20796;-52
2022/03/11 03:01:01;;;;;;;13.03;7.57;;;;;;;1.15;46.92;102612.28;5003847;28;20287;-53
2022/03/11 03:03:27;;;;;;;12.73;8.27;;;;;;;1.23;46.54;102621.47;5004745;28;20255;-52
2022/03/11 03:05:53;;;;;;;13.60;9.10;;;;;;;1.55;49.45;102614.94;5006099;28;20771;-52
2022/03/11 03:08:20;;;;;;;14.27;8.73;;;;;;;1.19;46.49;102619.44;5004917;28;20321;-51
2022/03/11 03:10:46;;;;;;;13.87;9.20;;;;;;;1.21;45.90;102615.28;5005537;28;20303;-53
2022/03/11 03:13:13;;;;;;;12.57;7.90;;;;;;;0.82;46.00;102613.47;5004471;28;20241;-52
2022/03/11 03:15:41;;;;;;;12.23;8.60;;;;;;;0.85;46.65;102609.41;5004574;28;20251;-53
2022/03/11 03:18:07;;;;;;;12.97;8.53;;;;;;;0.81;47.48;102615.19;5004434;28;20253;-53
2022/03/11 03:20:34;;;;;;;10.37;7.97;;;;;;;1.39;49.67;102606.16;5005588;28;20247;-52
2022/03/11 03:23:00;;;;;;;12.27;8.07;;;;;;;1.07;47.57;102605.69;5005736;28;20268;-53
2022/03/11 03:25:26;;;;;;;13.73;8.93;;;;;;;1.34;49.35;102602.38;5006396;28;20267;-53
2022/03/11 03:27:53;;;;;;;13.07;10.00;;;;;;;1.42;48.87;102597.69;5011203;28;20313;-53
2022/03/11 03:30:19;;;;;;;10.47;8.70;;;;;;;1.40;48.07;102602.78;5010828;28;20657;-52
2022/03/11 03:32:47;;;;;;;16.43;10.73;;;;;;;1.07;46.77;102606.59;5003573;28;20243;-53
2022/03/11 03:35:14;;;;;;;10.97;8.30;;;;;;;0.91;47.28;102607.25;5011040;28;20299;-52
2022/03/11 03:37:40;;;;;;;11.13;8.07;;;;;;;1.52;48.87;102609.56;5011450;28;20244;-52
2022/03/11 03:40:08;;;;;;;15.23;9.83;;;;;;;1.46;49.12;102603.97;5011175;28;20736;-52
2022/03/11 03:42:34;;;;;;;14.90;8.43;;;;;;;1.60;49.75;102608.38;5011872;28;20282;-53
2022/03/11 03:45:01;;;;;;;14.77;8.23;;;;;;;0.85;47.02;102604.25;5008503;28;20662;-51
2022/03/11 03:47:27;;;;;;;12.23;8.77;;;;;;;1.46;50.25;102598.81;5011002;28;20251;-53
2022/03/11 03:49:55;;;;;;;15.03;9.60;;;;;;;1.70;48.06;102605.59;5009768;28;20262;-52
2022/03/11 03:52:21;;;;;;;12.83;8.23;;;;;;;1.01;46.00;102602.69;5010049;28;20293;-52
2022/03/11 03:54:47;;;;;;;14.73;9.70;;;;;;;0.91;48.30;102606.34;5012555;28;20256;-52
2022/03/11 03:57:14;;;;;;;16.37;9.43;;;;;;;1.10;48.81;102601.63;5011796;28;20309;-52
2022/03/11 03:59:40;;;;;;;11.80;8.57;;;;;;;0.74;49.30;102614.63;5012263;28;20266;-53
2022/03/11 04:02:07;;;;;;;12.33;8.30;;;;;;;0.86;48.98;102602.56;5010701;28;20260;-53
2022/03/11 04:04:33;;;;;;;11.80;9.07;;;;;;;1.09;50.21;102596.34;5012318;28;20321;-52
2022/03/11 04:07:01;;;;;;;13.60;8.53;;;;;;;0.57;49.24;102604.03;5010639;28;20616;-54
2022/03/11 04:09:27;;;;;;;16.00;9.23;;;;;;;0.47;48.04;102607.66;5011294;28;20715;-52
2022/03/11 04:11:53;;;;;;;18.63;9.37;;;;;;;0.90;50.35;102605.44;5009533;28;20239;-53
2022/03/11 04:14:19;;;;;;;12.37;8.30;;;;;;;0.16;48.50;102603.69;5010652;28;20237;-53
2022/03/11 04:16:46;;;;;;;16.13;8.67;;;;;;;0.40;48.47;102604.53;5012033;28;20323;-52
2022/03/11 04:19:12;;;;;;;11.37;8.47;;;;;;;0.72;51.23;102604.19;5011401;28;20761;-52
2022/03/11 04:21:39;;;;;;;14.63;8.90;;;;;;;1.24;50.27;102591.31;5000341;28;20242;-52
2022/03/11 04:24:13;;;;;;;14.80;8.83;;;;;;;0.84;47.12;102604.13;4998631;28;20758;-52
2022/03/11 04:26:40;;;;;;;14.80;8.43;;;;;;;0.62;47.00;102604.34;5011930;28;20612;-52
2022/03/11 04:29:06;;;;;;;16.17;9.40;;;;;;;0.94;48.82;102597.09;5011556;28;20883;-53
2022/03/11 04:31:33;;;;;;;16.40;9.03;;;;;;;1.08;48.36;102592.84;5012351;28;20338;-53
2022/03/11 04:34:00;;;;;;;13.77;8.57;;;;;;;0.71;50.11;102597.22;5012231;28;20799;-52
2022/03/11 04:36:27;;;;;;;15.67;9.07;;;;;;;1.11;48.96;102599.94;5010576;28;20304;-53
2022/03/11 04:38:54;;;;;;;11.73;7.80;;;;;;;0.78;49.98;102594.28;5006486;28;20233;-52
2022/03/11 04:41:21;;;;;;;14.10;9.20;;;;;;;0.23;48.80;102585.25;5006599;28;20251;-53
2022/03/11 04:43:48;;;;;;;15.87;9.47;;;;;;;0.32;49.59;102591.09;5008160;28;20242;-52
2022/03/11 04:46:14;;;;;;;15.70;8.87;;;;;;;0.81;48.57;102586.72;5008110;28;20287;-52
2022/03/11 04:48:43;;;;;;;15.93;9.10;;;;;;;0.70;48.63;102592.84;5007876;28;20255;-52
2022/03/11 04:51:09;;;;;;;18.67;9.17;;;;;;;0.51;48.43;102582.03;5004656;28;20240;-53
2022/03/11 04:53:36;;;;;;;13.73;9.23;;;;;;;0.52;49.41;102584.72;5008001;28;20398;-52
2022/03/11 04:56:02;;;;;;;13.13;9.00;;;;;;;0.17;49.39;102582.25;5007857;28;20230;-54
2022/03/11 04:58:30;;;;;;;14.83;9.00;;;;;;;0.68;49.07;102586.69;5010227;28;20251;-52
2022/03/11 05:00:56;;;;;;;15.50;8.67;;;;;;;0.51;48.95;102592.38;5011789;28;20233;-54
2022/03/11 05:03:22;;;;;;;14.07;8.13;;;;;;;0.53;48.06;102585.59;5016331;28;20594;-54
2022/03/11 05:05:49;;;;;;;14.40;9.47;;;;;;;0.24;49.29;102587.03;5005631;28;20236;-53
2022/03/11 05:08:15;;;;;;;12.70;8.60;;;;;;;0.65;50.23;102596.81;5007773;28;20236;-53
2022/03/11 05:10:41;;;;;;;12.60;9.17;;;;;;;0.71;48.27;102597.22;5007555;28;20265;-53
2022/03/11 05:13:08;;;;;;;12.90;8.00;;;;;;;0.72;50.42;102588.69;5005327;28;20738;-54
2022/03/11 05:15:37;;;;;;;12.03;8.40;;;;;;;0.15;48.33;102586.41;5007606;28;20770;-54
2022/03/11 05:18:04;;;;;;;14.90;9.73;;;;;;;0.40;50.37;102594.19;5006649;28;20237;-53
2022/03/11 05:20:30;;;;;;;14.33;8.70;;;;;;;0.48;48.85;102588.75;5007669;28;20300;-53
2022/03/11 05:22:57;;;;;;;14.13;8.63;;;;;;;0.09;48.62;102593.72;5007000;28;20388;-54
2022/03/11 05:25:23;;;;;;;14.87;9.47;;;;;;;0.06;49.42;102596.97;4997768;28;20265;-53
2022/03/11 05:27:50;;;;;;;13.63;9.33;;;;;;;0.36;47.37;102595.69;5004606;28;20316;-52
2022/03/11 05:30:16;;;;;;;17.97;9.00;;;;;;;0.21;49.42;102594.56;5004844;28;20239;-54
2022/03/11 05:32:46;;;;;;;12.80;9.17;;;;;;;0.81;48.49;102594.50;5007462;28;20240;-54
2022/03/11 05:35:12;;;;;;;10.80;8.33;;;;;;;0.70;48.51;102605.75;5006608;28;20318;-54
2022/03/11 05:37:39;;;;;;;12.33;8.10;;;;;;;0.62;47.09;102594.91;5006835;28;20264;-52
2022/03/11 05:40:06;;;;;;;15.77;9.53;;;;;;;0.59;47.94;102596.38;5006191;28;20319;-52
2022/03/11 05:42:33;;;;;;;14.53;8.47;;;;;;;0.33;48.42;102587.72;5007171;28;20244;-51
2022/03/11 05:44:59;;;;;;;13.23;8.80;;;;;;;0.28;47.63;102586.50;5007917;28;20244;-53
2022/03/11 05:47:26;;;;;;;14.10;9.00;;;;;;;0.61;48.93;102606.03;5002545;28;20240;-54
2022/03/11 05:49:54;;;;;;;14.27;8.47;;;;;;;0.87;47.04;102596.56;5005134;28;20257;-52
2022/03/11 05:52:21;;;;;;;17.77;10.53;;;;;;;0.79;47.65;102601.22;5005218;28;20258;-54
2022/03/11 05:54:47;;;;;;;10.77;8.63;;;;;;;0.76;48.53;102606.19;5007249;28;20314;-54
2022/03/11 05:57:14;;;;;;;18.57;10.17;;;;;;;0.33;48.71;102598.03;5005002;28;20256;-52
2022/03/11 05:59:40;;;;;;;12.33;9.03;;;;;;;0.25;50.58;102599.19;5006301;28;20264;-51
2022/03/11 06:02:06;;;;;;;13.67;9.13;;;;;;;0.14;48.55;102611.34;5005236;28;20261;-53
2022/03/11 06:04:33;;;;;;;12.70;8.83;;;;;;;-0.22;48.28;102603.53;5006626;28;20265;-54
2022/03/11 06:07:00;;;;;;;14.67;9.20;;;;;;;0.03;49.90;102611.34;5007211;28;20259;-54
2022/03/11 06:09:27;;;;;;;12.30;8.20;;;;;;;0.90;50.33;102618.38;5005249;28;20255;-53
2022/03/11 06:11:54;;;;;;;13.70;9.17;;;;;;;0.23;48.18;102617.16;5005907;28;20294;-54
2022/03/11 06:14:20;;;;;;;14.77;8.57;;;;;;;0.55;50.54;102607.28;4999277;28;20232;-53
2022/03/11 06:16:46;;;;;;;12.77;9.07;;;;;;;0.43;48.56;102605.66;5002887;28;20249;-54
2022/03/11 06:19:13;;;;;;;12.37;8.03;;;;;;;0.48;50.03;102608.53;4998632;28;20266;-52
2022/03/11 06:21:39;;;;;;;13.47;9.47;;;;;;;0.44;48.08;102612.59;5002149;28;20252;-53
2022/03/11 06:24:07;;;;;;;15.17;8.87;;;;;;;0.72;48.82;102614.53;4997061;28;20706;-53
2022/03/11 06:26:34;;;;;;;13.77;8.63;;;;;;;0.87;49.15;102620.75;5005528;28;21005;-52
2022/03/11 06:29:00;;;;;;;15.00;8.57;;;;;;;0.82;46.89;102611.78;5003559;28;20289;-53
2022/03/11 06:31:26;;;;;;;14.20;9.70;;;;;;;0.80;47.78;102617.63;4989837;28;20322;-52
2022/03/11 06:37:14;;;;;;;12.23;9.10;;;;;;;0.44;47.03;102612.59;4992641;28;20290;-52
2022/03/11 06:39:42;;;;;;;12.07;8.87;;;;;;;0.29;48.58;102627.03;5004175;28;20358;-53
2022/03/11 06:42:08;;;;;;;17.60;9.50;;;;;;;0.47;46.82;102625.75;5005384;28;20254;-55
2022/03/11 06:44:34;;;;;;;19.10;9.80;;;;;;;0.72;49.41;102624.88;5005627;28;20679;-52
2022/03/11 06:47:01;;;;;;;14.53;9.90;;;;;;;0.64;46.93;102620.88;5006449;28;20298;-52
2022/03/11 06:49:27;;;;;;;14.87;9.70;;;;;;;0.27;47.85;102628.59;5003826;28;20259;-53
2022/03/11 06:51:53;;;;;;;13.67;9.07;;;;;;;-0.03;46.79;102628.22;5005875;28;20245;-54
2022/03/11 06:54:20;;;;;;;13.30;9.50;;;;;;;-0.04;47.77;102634.13;5004707;28;20225;-54
2022/03/11 06:56:48;;;;;;;14.83;8.70;;;;;;;0.04;48.63;102624.38;5006456;28;20276;-54
2022/03/11 06:59:14;;;;;;;14.43;9.80;;;;;;;0.92;46.79;102624.56;5005325;28;20245;-52
2022/03/11 07:01:44;;;;;;;12.17;8.80;;;;;;;0.76;47.92;102625.97;5003285;28;20308;-51
2022/03/11 07:04:10;;;;;;;11.67;9.33;;;;;;;0.59;48.21;102628.28;4991115;28;20256;-54
2022/03/11 07:06:36;;;;;;;14.90;9.53;;;;;;;0.97;46.23;102627.44;5002273;28;20243;-52
2022/03/11 07:09:03;;;;;;;14.60;9.80;;;;;;;0.60;45.88;102631.78;5000195;28;20544;-54
2022/03/11 07:11:31;;;;;;;14.20;9.63;;;;;;;1.18;48.50;102628.91;5003762;28;20240;-52
2022/03/11 07:13:58;;;;;;;14.13;9.20;;;;;;;1.13;47.90;102630.28;5006122;28;20240;-54
2022/03/11 07:16:25;;;;;;;13.83;8.63;;;;;;;0.96;45.55;102628.25;5005279;28;20319;-54
2022/03/11 07:18:51;;;;;;;15.20;9.03;;;;;;;0.71;46.50;102628.25;5005768;28;20625;-53
2022/03/11 07:21:17;;;;;;;15.83;10.03;;;;;;;0.86;46.48;102624.13;5006051;28;20276;-54
2022/03/11 07:23:44;;;;;;;14.80;9.43;;;;;;;1.09;47.56;102622.19;5007735;28;20239;-55
2022/03/11 07:26:10;;;;;;;17.30;9.90;;;;;;;1.05;45.23;102622.78;5008628;28;20620;-54
2022/03/11 07:28:37;;;;;;;14.10;8.60;;;;;;;0.98;44.77;102628.34;4995034;28;20623;-51
2022/03/11 07:31:04;;;;;;;13.00;8.80;;;;;;;1.19;46.18;102627.22;5005506;28;20252;-55
2022/03/11 07:33:31;;;;;;;12.63;8.97;;;;;;;1.14;44.38;102637.25;5009631;28;20794;-53
2022/03/11 07:35:57;;;;;;;16.73;9.60;;;;;;;1.08;43.80;102630.75;5005639;28;20236;-52
2022/03/11 07:38:30;;;;;;;16.13;9.30;;;;;;;0.88;44.09;102622.56;5004822;28;20255;-53
2022/03/11 07:40:57;;;;;;;13.43;10.23;;;;;;;0.87;44.82;102636.25;4998856;28;20348;-52
2022/03/11 07:43:24;;;;;;;15.63;9.70;;;;;;;1.15;43.96;102633.88;5005657;28;20716;-52
2022/03/11 07:45:50;;;;;;;12.87;9.33;;;;;;;1.17;45.02;102628.81;4997095;28;20227;-53
2022/03/11 07:48:18;;;;;;;13.73;10.00;;;;;;;0.98;44.87;102629.22;5005013;28;20249;-52
2022/03/11 07:50:45;;;;;;;17.17;9.37;;;;;;;0.91;44.17;102617.59;5006268;28;20304;-51
2022/03/11 07:53:11;;;;;;;14.13;9.33;;;;;;;1.05;44.66;102626.28;5006372;28;20259;-54
2022/03/11 07:55:37;;;;;;;12.03;8.93;;;;;;;1.44;44.17;102629.78;5003972;28;20267;-54
2022/03/11 07:58:04;;;;;;;14.83;9.93;;;;;;;1.95;44.07;102628.78;5005522;28;20252;-54
2022/03/11 08:00:30;;;;;;;14.27;9.13;;;;;;;2.17;42.57;102625.84;5003734;28;20295;-54
2022/03/11 08:02:57;;;;;;;15.03;9.87;;;;;;;2.11;41.04;102620.31;5002665;28;20794;-53
2022/03/11 08:05:24;;;;;;;12.80;8.27;;;;;;;1.86;41.85;102628.19;5004351;28;20268;-53
2022/03/11 08:07:51;;;;;;;12.70;9.13;;;;;;;2.14;43.32;102620.47;5003328;28;20235;-54
2022/03/11 08:10:18;;;;;;;14.63;9.20;;;;;;;2.48;41.52;102617.44;5002765;28;20717;-54
2022/03/11 08:12:44;;;;;;;14.50;8.27;;;;;;;2.33;40.65;102623.44;5006892;28;20259;-53
2022/03/11 08:15:12;;;;;;;13.17;9.37;;;;;;;2.45;40.95;102612.94;5006499;28;20344;-54
2022/03/11 08:17:40;;;;;;;11.50;8.70;;;;;;;2.49;40.69;102621.81;5006645;28;20605;-52
2022/03/11 08:20:08;;;;;;;14.70;9.07;;;;;;;2.37;41.63;102612.47;5006759;28;20387;-53
2022/03/11 08:22:36;;;;;;;14.90;9.50;;;;;;;2.62;40.41;102616.56;5005945;28;20728;-52
2022/03/11 08:25:02;;;;;;;15.63;8.63;;;;;;;2.88;38.59;102610.41;5005084;28;20232;-53
2022/03/11 08:27:28;;;;;;;18.47;9.00;;;;;;;2.82;38.41;102618.69;5008609;28;20263;-53
2022/03/11 08:29:55;;;;;;;12.90;8.73;;;;;;;2.75;37.85;102608.75;5007505;28;20294;-54
2022/03/11 08:32:21;;;;;;;12.30;8.47;;;;;;;2.98;39.13;102611.84;5006911;28;20267;-51
2022/03/11 08:34:47;;;;;;;13.03;9.23;;;;;;;2.90;38.61;102603.59;5006564;28;20633;-53
2022/03/11 08:37:14;;;;;;;12.17;9.17;;;;;;;3.29;38.82;102612.84;5005921;28;20319;-53
2022/03/11 08:39:41;;;;;;;14.07;8.83;;;;;;;3.15;37.13;102605.94;5007326;28;20287;-53
2022/03/11 08:42:08;;;;;;;13.90;9.17;;;;;;;3.02;38.19;102603.41;5006635;28;20319;-53
2022/03/11 08:44:35;;;;;;;14.37;9.20;;;;;;;3.11;38.33;102604.88;5007482;28;20268;-52
2022/03/11 08:47:01;;;;;;;14.00;9.03;;;;;;;3.16;38.99;102610.34;5007877;28;20245;-53
2022/03/11 08:49:27;;;;;;;11.37;8.37;;;;;;;3.47;38.25;102606.94;5004583;28;20259;-53
2022/03/11 08:51:53;;;;;;;13.73;8.47;;;;;;;3.49;37.87;102616.63;5007736;28;20295;-53
2022/03/11 08:54:20;;;;;;;12.30;8.13;;;;;;;3.55;38.09;102603.09;5005031;28;20233;-53
2022/03/11 08:56:48;;;;;;;14.90;9.57;;;;;;;3.57;37.96;102617.06;5006487;28;20225;-54
2022/03/11 08:59:15;;;;;;;13.93;9.30;;;;;;;3.41;35.82;102601.41;5005625;28;20319;-54
2022/03/11 09:01:41;;;;;;;12.53;9.33;;;;;;;3.67;38.13;102608.09;5001911;28;20252;-54
2022/03/11 09:04:07;;;;;;;14.33;9.20;;;;;;;3.37;36.99;102615.91;5003525;28;20322;-54
2022/03/11 09:06:34;;;;;;;14.07;9.53;;;;;;;3.70;36.10;102611.75;5006622;28;20244;-55
2022/03/11 09:09:00;;;;;;;12.97;8.67;;;;;;;3.85;35.79;102613.44;5003557;28;20802;-54
2022/03/11 09:11:26;;;;;;;13.13;9.23;;;;;;;4.17;34.43;102597.94;5005433;28;20318;-54
2022/03/11 09:13:54;;;;;;;12.23;8.30;;;;;;;4.26;34.98;102598.44;5005528;28;20602;-53
2022/03/11 09:16:20;;;;;;;11.87;8.33;;;;;;;4.13;34.29;102601.19;5006489;28;20229;-53
2022/03/11 09:18:47;;;;;;;15.37;8.23;;;;;;;4.26;35.94;102593.25;5005684;28;20287;-53
2022/03/11 09:21:13;;;;;;;17.90;9.60;;;;;;;4.21;34.46;102602.50;5006798;28;20233;-52
2022/03/11 09:23:39;;;;;;;14.13;9.73;;;;;;;4.39;34.26;102594.81;5004885;28;20640;-53
2022/03/11 09:26:06;;;;;;;14.97;10.00;;;;;;;4.51;33.96;102610.19;5005331;28;20233;-53
2022/03/11 09:28:33;;;;;;;13.37;9.77;;;;;;;4.42;34.70;102599.25;5006342;28;20281;-52
2022/03/11 09:31:03;;;;;;;14.83;8.77;;;;;;;4.44;34.78;102597.66;5001393;28;20308;-53
2022/03/11 09:33:30;;;;;;;12.90;9.17;;;;;;;4.19;34.66;102611.03;5005985;28;20320;-52
2022/03/11 09:35:56;;;;;;;14.87;9.80;;;;;;;4.48;35.18;102610.00;5001501;28;20293;-53
2022/03/11 09:38:22;;;;;;;13.43;8.63;;;;;;;4.34;33.63;102600.56;5010388;28;20240;-53
2022/03/11 09:40:51;;;;;;;13.07;9.47;;;;;;;4.47;34.00;102600.44;5019333;28;20225;-53
2022/03/11 09:43:18;;;;;;;14.90;8.77;;;;;;;4.34;35.51;102592.75;5012265;28;20888;-51
2022/03/11 09:45:46;;;;;;;13.73;9.23;;;;;;;4.53;34.35;102593.84;5005050;28;20769;-52
2022/03/11 09:48:15;;;;;;;12.83;8.17;;;;;;;4.65;33.94;102591.00;5005291;28;20299;-52
2022/03/11 09:50:41;;;;;;;12.20;9.33;;;;;;;4.74;33.15;102581.09;5006829;28;20957;-51
2022/03/11 09:53:08;;;;;;;12.67;8.77;;;;;;;4.62;32.68;102593.44;5005046;28;20295;-51
2022/03/11 09:55:34;;;;;;;15.23;9.30;;;;;;;4.51;33.91;102585.06;5004854;28;20787;-54
2022/03/11 09:58:00;;;;;;;12.90;9.20;;;;;;;4.66;32.73;102584.97;5004616;28;20681;-54
2022/03/11 10:00:27;;;;;;;13.23;10.20;;;;;;;4.93;34.07;102587.25;4998067;28;20546;-53
2022/03/11 10:02:55;;;;;;;13.77;8.93;;;;;;;5.12;33.67;102579.53;5001608;28;20252;-54
2022/03/11 10:05:23;;;;;;;11.43;8.07;;;;;;;5.25;33.22;102584.56;5002838;28;20605;-53
2022/03/11 10:07:59;;;;;;;10.90;8.93;;;;;;;4.93;32.79;102589.84;5002586;28;20245;-53
2022/03/11 10:10:25;;;;;;;11.87;8.83;;;;;;;5.13;32.87;102573.53;5002020;28;20244;-53
2022/03/11 10:12:53;;;;;;;14.00;10.07;;;;;;;5.21;32.01;102597.34;5006313;28;20311;-54
2022/03/11 10:15:27;;;;;;;13.83;9.53;;;;;;;5.16;33.07;102581.50;5004061;28;20241;-54
2022/03/11 10:17:54;;;;;;;10.77;8.20;;;;;;;4.79;33.04;102571.78;5009030;28;20320;-53
2022/03/11 10:20:20;;;;;;;17.10;9.03;;;;;;;5.02;32.03;102582.53;5011271;28;20889;-53
2022/03/11 10:22:48;;;;;;;13.77;8.80;;;;;;;5.08;33.57;102585.41;5008157;28;20302;-53
2022/03/11 10:25:17;;;;;;;15.85;11.60;;;;;;;5.00;32.03;102574.63;5011954;28;20510;-53
2022/03/11 10:27:57;;;;;;;12.10;8.80;;;;;;;5.15;33.95;102577.09;5012031;28;20604;-54
2022/03/11 10:30:24;;;;;;;14.90;8.30;;;;;;;5.13;34.24;102565.72;5013062;28;20253;-54
2022/03/11 10:32:51;;;;;;;14.07;10.15;;;;;;;5.14;31.18;102570.13;5012100;28;20499;-54
2022/03/11 10:35:19;;;;;;;16.70;9.87;;;;;;;5.16;33.30;102567.56;5014932;28;20729;-54
2022/03/11 10:37:59;;;;;;;13.03;9.03;;;;;;;5.22;32.53;102568.78;5010759;28;20246;-54
2022/03/11 10:40:26;;;;;;;12.37;9.53;;;;;;;5.16;32.87;102568.50;5009077;28;20322;-53
2022/03/11 10:43:09;;;;;;;14.17;9.13;;;;;;;5.16;31.54;102568.50;5008125;28;20646;-53
2022/03/11 10:45:44;;;;;;;12.33;8.23;;;;;;;5.22;31.58;102568.78;5010925;28;20732;-54
2022/03/11 10:48:10;;;;;;;10.97;8.23;;;;;;;5.51;32.51;102566.75;5011218;28;20423;-54
2022/03/11 10:50:37;;;;;;;13.40;8.30;;;;;;;5.56;30.64;102560.03;5008722;28;20285;-55
2022/03/11 10:53:07;;;;;;;13.17;8.17;;;;;;;5.48;30.64;102554.47;5014097;28;20236;-55
2022/03/11 10:55:34;;;;;;;12.07;8.20;;;;;;;5.80;30.83;102549.91;5003928;28;20716;-54
2022/03/11 10:58:04;;;;;;;9.87;8.23;;;;;;;5.89;31.14;102559.88;5003936;28;20308;-54
2022/03/11 11:00:32;;;;;;;14.83;8.13;;;;;;;5.89;30.16;102555.53;5010132;28;20663;-54
2022/03/11 11:03:00;;;;;;;9.53;8.13;;;;;;;5.73;31.33;102548.72;5014183;28;20240;-57
2022/03/11 11:05:28;;;;;;;13.80;8.23;;;;;;;5.92;29.35;102546.97;5013717;28;20248;-54
2022/03/11 11:07:55;;;;;;;12.37;8.30;;;;;;;5.84;29.46;102540.53;5014607;28;20263;-53
2022/03/11 11:10:25;;;;;;;11.20;7.43;;;;;;;5.75;28.85;102541.84;5019211;28;20240;-56
2022/03/11 11:12:52;;;;;;;11.83;8.13;;;;;;;5.94;30.33;102542.78;5021973;28;20289;-53
2022/03/11 11:15:19;;;;;;;10.43;8.00;;;;;;;5.80;29.19;102542.09;5012001;28;20241;-53
2022/03/11 11:17:49;;;;;;;10.43;7.40;;;;;;;5.75;30.00;102531.44;5003213;28;20679;-53
2022/03/11 11:20:20;;;;;;;12.30;7.90;;;;;;;6.01;30.09;102539.63;5006101;28;20248;-54
2022/03/11 11:22:48;;;;;;;9.63;7.37;;;;;;;5.97;29.70;102520.34;5002182;28;20244;-53
2022/03/11 11:25:16;;;;;;;13.43;8.40;;;;;;;5.95;28.87;102534.13;5000363;28;20291;-54
2022/03/11 11:27:44;;;;;;;10.27;7.90;;;;;;;6.09;28.26;102533.06;5004213;28;20706;-54